Time;durP1;ratioP1;P1;durP2;ratioP2;P2;SDS_P1;SDS_P2;PMS_P1;PMS_P2;Temp;Humidity;BMP_temperature;BMP_pressure;BME280_temperature;BME280_humidity;BME280_pressure;Samples;Min_cycle;Max_cycle;Signal;HPM_P1;HPM_P2
2022/01/05 00:00:18;;;;;;;1.98;1.08;;;;;;;5.67;79.95;96952.34;4110536;28;20215;-54
2022/01/05 00:02:20;;;;;;;1.20;1.10;;;;;;;5.51;79.35;96956.00;4112735;28;20214;-54
2022/01/05 00:04:22;;;;;;;1.73;1.00;;;;;;;5.58;79.50;96937.63;4120952;28;20273;-54
2022/01/05 00:06:24;;;;;;;1.02;1.00;;;;;;;5.49;79.74;96941.91;4105635;28;20635;-54
2022/01/05 00:08:25;;;;;;;2.63;1.63;;;;;;;5.38;79.62;96932.00;4119212;28;20267;-55
2022/01/05 00:10:27;;;;;;;2.25;1.10;;;;;;;5.53;80.21;96932.16;4111997;28;20560;-54
2022/01/05 00:12:29;;;;;;;1.20;1.20;;;;;;;5.53;79.87;96929.44;4094206;28;20299;-54
2022/01/05 00:14:30;;;;;;;1.17;1.05;;;;;;;5.49;80.26;96925.63;4121051;28;20253;-54
2022/01/05 00:16:32;;;;;;;1.30;0.98;;;;;;;5.42;79.73;96933.16;4104408;28;20219;-55
2022/01/05 00:18:34;;;;;;;1.95;1.25;;;;;;;5.47;79.42;96920.44;4106778;28;20319;-54
2022/01/05 00:20:35;;;;;;;1.02;1.02;;;;;;;5.32;80.06;96927.63;4107530;28;20206;-55
2022/01/05 00:22:37;;;;;;;1.08;1.02;;;;;;;5.27;80.23;96920.25;4104209;28;20266;-54
2022/01/05 00:24:41;;;;;;;1.35;1.27;;;;;;;5.41;80.14;96920.63;4106337;28;20333;-53
2022/01/05 00:26:43;;;;;;;2.53;1.30;;;;;;;5.45;80.10;96916.34;4106183;28;20207;-54
2022/01/05 00:28:44;;;;;;;1.85;1.00;;;;;;;5.40;80.30;96908.16;4120356;28;21777;-53
2022/01/05 00:30:46;;;;;;;3.80;1.25;;;;;;;5.37;79.69;96905.97;4105049;28;20207;-53
2022/01/05 00:32:48;;;;;;;2.15;1.40;;;;;;;5.51;80.00;96899.06;4105234;28;20677;-54
2022/01/05 00:34:50;;;;;;;1.38;1.15;;;;;;;5.48;80.11;96902.25;4104290;28;20234;-54
2022/01/05 00:36:51;;;;;;;1.17;0.98;;;;;;;5.45;79.77;96897.38;4104024;28;20949;-55
2022/01/05 00:38:53;;;;;;;1.65;1.30;;;;;;;5.43;80.32;96896.81;4105426;28;20227;-54
2022/01/05 00:40:55;;;;;;;1.27;1.17;;;;;;;5.48;79.98;96897.66;4108265;28;20763;-54
2022/01/05 00:42:59;;;;;;;1.15;1.05;;;;;;;5.48;79.82;96888.69;4127662;28;20213;-54
2022/01/05 00:45:01;;;;;;;1.40;1.30;;;;;;;5.47;80.34;96892.50;4112917;28;20202;-55
2022/01/05 00:47:03;;;;;;;1.80;1.00;;;;;;;5.44;80.01;96893.81;4109181;28;20210;-55
2022/01/05 00:49:05;;;;;;;1.20;1.10;;;;;;;5.51;79.79;96893.63;4122545;28;20699;-54
2022/01/05 00:51:08;;;;;;;3.08;1.38;;;;;;;5.44;80.14;96891.09;4125484;28;20238;-54
2022/01/05 00:53:09;;;;;;;3.17;1.13;;;;;;;5.43;80.01;96891.41;4123992;28;20220;-54
2022/01/05 00:55:11;;;;;;;1.10;1.10;;;;;;;5.50;80.02;96878.44;4109564;28;20262;-55
2022/01/05 00:57:13;;;;;;;1.80;1.70;;;;;;;5.52;80.03;96884.41;4105914;28;20227;-53
2022/01/05 00:59:14;;;;;;;1.55;1.45;;;;;;;5.45;80.30;96883.81;4104293;28;20275;-55
2022/01/05 01:01:16;;;;;;;1.52;1.15;;;;;;;5.47;80.14;96889.78;4123035;28;20562;-55
2022/01/05 01:03:18;;;;;;;2.42;1.55;;;;;;;5.52;80.30;96903.41;4119569;28;20214;-54
2022/01/05 01:05:20;;;;;;;2.72;1.00;;;;;;;5.48;80.24;96910.41;4109549;28;20238;-54
2022/01/05 01:07:22;;;;;;;1.85;1.27;;;;;;;5.51;80.46;96920.75;4105547;28;20211;-53
2022/01/05 01:09:24;;;;;;;1.65;1.55;;;;;;;5.57;80.17;96925.16;4106758;28;20591;-54
2022/01/05 01:11:25;;;;;;;1.60;1.17;;;;;;;5.57;80.33;96908.88;4120251;28;20211;-54
2022/01/05 01:13:27;;;;;;;2.67;1.48;;;;;;;5.62;80.65;96920.59;4118566;28;20233;-54
2022/01/05 01:15:29;;;;;;;2.08;1.67;;;;;;;5.64;80.11;96913.00;4104861;28;20246;-54
2022/01/05 01:17:31;;;;;;;1.55;1.45;;;;;;;5.67;79.86;96914.38;4119404;28;20305;-54
2022/01/05 01:19:32;;;;;;;3.13;1.40;;;;;;;5.71;79.77;96918.22;4106247;28;20269;-54
2022/01/05 01:21:35;;;;;;;1.15;1.05;;;;;;;5.68;79.92;96926.84;4123251;28;21785;-56
2022/01/05 01:23:37;;;;;;;3.42;1.67;;;;;;;5.68;79.95;96926.84;4122266;28;20214;-55
2022/01/05 01:25:39;;;;;;;2.28;1.42;;;;;;;5.66;80.17;96921.72;4106573;28;20215;-54
2022/01/05 01:27:42;;;;;;;4.45;1.85;;;;;;;5.67;80.12;96925.22;4107691;28;20218;-55
2022/01/05 01:29:44;;;;;;;2.90;1.70;;;;;;;5.72;80.37;96928.00;4107663;28;21355;-53
2022/01/05 01:31:47;;;;;;;2.08;1.65;;;;;;;5.75;79.93;96928.28;4106238;28;20215;-53
2022/01/05 01:33:50;;;;;;;3.15;1.92;;;;;;;5.71;80.24;96926.34;4118615;28;20298;-54
2022/01/05 01:35:51;;;;;;;2.78;1.83;;;;;;;5.71;80.26;96937.22;4116894;28;20285;-54
2022/01/05 01:37:54;;;;;;;3.67;1.95;;;;;;;5.72;80.19;96933.41;4106054;28;20309;-55
2022/01/05 01:39:56;;;;;;;2.25;1.70;;;;;;;5.69;80.47;96934.75;4119602;28;20215;-54
2022/01/05 01:41:58;;;;;;;2.33;1.90;;;;;;;5.70;80.13;96935.59;4118924;28;20238;-54
2022/01/05 01:43:59;;;;;;;2.50;2.30;;;;;;;5.67;80.56;96941.50;4106607;28;20741;-54
2022/01/05 01:46:01;;;;;;;2.88;2.40;;;;;;;5.64;80.20;96942.84;4102405;28;20748;-55
2022/01/05 01:48:03;;;;;;;3.47;2.22;;;;;;;5.70;80.47;96941.00;4102598;28;20219;-54
2022/01/05 01:50:05;;;;;;;2.90;2.30;;;;;;;5.68;80.35;96948.56;4102442;28;22197;-55
2022/01/05 01:52:07;;;;;;;3.53;2.30;;;;;;;5.69;80.49;96942.88;4104429;28;20725;-54
2022/01/05 01:54:09;;;;;;;4.85;2.85;;;;;;;5.66;80.41;96940.69;4117220;28;21774;-55
2022/01/05 01:56:11;;;;;;;4.05;2.58;;;;;;;5.70;80.15;96951.84;4119119;28;20244;-54
2022/01/05 01:58:13;;;;;;;2.00;1.90;;;;;;;5.67;80.55;96947.75;4117974;28;20760;-54
2022/01/05 02:00:18;;;;;;;7.18;1.92;;;;;;;5.74;80.20;96952.97;4103819;28;20262;-53
2022/01/05 02:02:20;;;;;;;4.95;3.30;;;;;;;5.75;80.36;96965.47;4104171;28;20238;-54
2022/01/05 02:04:22;;;;;;;3.15;2.22;;;;;;;5.72;80.55;96965.97;4119794;28;20233;-54
2022/01/05 02:06:23;;;;;;;3.28;2.65;;;;;;;5.80;80.39;96968.25;4122800;28;20269;-54
2022/01/05 02:08:25;;;;;;;1.98;1.88;;;;;;;5.80;80.54;96969.09;4104271;28;20230;-53
2022/01/05 02:10:27;;;;;;;2.85;2.40;;;;;;;5.71;80.95;96976.03;4105792;28;22816;-54
2022/01/05 02:12:29;;;;;;;3.75;2.20;;;;;;;5.80;80.68;96962.81;4120954;28;20707;-54
2022/01/05 02:14:31;;;;;;;3.63;2.63;;;;;;;5.78;80.35;96962.25;4104501;28;20704;-54
2022/01/05 02:16:35;;;;;;;3.88;2.38;;;;;;;5.80;80.48;96979.09;4103316;28;20242;-55
2022/01/05 02:20:46;;;;;;;1.90;1.80;;;;;;;5.81;80.29;96978.03;4119461;28;20215;-55
2022/01/05 02:22:48;;;;;;;3.53;2.10;;;;;;;5.77;80.96;96982.31;4091413;28;20207;-55
2022/01/05 02:24:49;;;;;;;2.00;1.88;;;;;;;5.79;80.34;96997.28;4117013;28;20207;-54
2022/01/05 02:26:51;;;;;;;2.33;2.13;;;;;;;5.76;80.89;96999.69;4103824;28;20302;-55
2022/01/05 02:28:53;;;;;;;2.28;2.08;;;;;;;5.74;80.87;96986.34;4103118;28;20318;-53
2022/01/05 02:30:56;;;;;;;1.95;1.85;;;;;;;5.75;81.24;96987.19;4119809;28;20236;-57
2022/01/05 02:32:58;;;;;;;3.47;1.88;;;;;;;5.72;81.03;96982.25;4104488;28;20218;-54
2022/01/05 02:35:00;;;;;;;2.45;2.25;;;;;;;5.76;81.05;96989.63;4118937;28;20333;-54
2022/01/05 02:37:01;;;;;;;2.95;1.65;;;;;;;5.82;81.46;97009.53;4120210;28;20210;-55
2022/01/05 02:39:03;;;;;;;2.42;2.17;;;;;;;5.76;81.08;97005.09;4104338;28;20226;-54
2022/01/05 02:41:07;;;;;;;1.20;1.10;;;;;;;5.44;78.01;97072.81;4090872;28;20963;-54
2022/01/05 02:43:09;;;;;;;0.88;0.88;;;;;;;5.13;76.30;97092.50;4101634;28;20254;-55
2022/01/05 02:45:12;;;;;;;1.20;1.10;;;;;;;4.75;75.39;97088.97;4089944;28;20239;-55
2022/01/05 02:47:14;;;;;;;0.75;0.75;;;;;;;4.62;75.13;97097.44;4104663;28;20238;-55
2022/01/05 02:49:19;;;;;;;0.75;0.75;;;;;;;4.65;77.21;97104.22;4118870;28;20297;-54
2022/01/05 02:51:21;;;;;;;0.88;0.88;;;;;;;4.69;76.79;97108.09;4096820;28;20202;-55
2022/01/05 02:53:23;;;;;;;0.98;0.90;;;;;;;4.58;76.46;97104.41;4100558;28;20266;-53
2022/01/05 02:55:25;;;;;;;1.20;1.20;;;;;;;4.57;76.81;97110.06;4118302;28;20253;-54
2022/01/05 02:57:27;;;;;;;0.90;0.90;;;;;;;4.58;76.26;97109.00;4118939;28;20264;-54
2022/01/05 02:59:29;;;;;;;0.73;0.73;;;;;;;4.62;75.83;97131.81;4102184;28;20676;-54
2022/01/05 03:01:31;;;;;;;1.02;0.90;;;;;;;4.55;75.35;97126.59;4103599;28;20211;-54
2022/01/05 03:03:33;;;;;;;1.00;1.00;;;;;;;4.63;76.21;97134.28;4118912;28;20343;-54
2022/01/05 03:05:35;;;;;;;0.70;0.70;;;;;;;4.69;76.56;97146.84;4102916;28;20218;-53
2022/01/05 03:07:39;;;;;;;0.80;0.80;;;;;;;4.64;75.56;97163.03;4099671;28;20219;-54
2022/01/05 03:09:42;;;;;;;1.08;0.93;;;;;;;4.60;76.31;97161.06;4115332;28;20261;-53
2022/01/05 03:11:43;;;;;;;0.75;0.75;;;;;;;4.56;75.17;97168.84;4117967;28;20250;-53
2022/01/05 03:13:46;;;;;;;1.00;1.00;;;;;;;4.56;75.88;97184.25;4104721;28;20203;-53
2022/01/05 03:15:47;;;;;;;1.25;1.08;;;;;;;4.58;75.95;97196.50;4107801;28;20262;-55
2022/01/05 03:17:50;;;;;;;0.95;0.95;;;;;;;4.57;76.39;97189.44;4119735;28;20214;-54
2022/01/05 03:19:51;;;;;;;1.02;1.02;;;;;;;4.55;76.83;97188.88;4120319;28;20252;-55
2022/01/05 03:21:53;;;;;;;2.50;1.15;;;;;;;4.59;76.11;97192.72;4103235;28;20641;-55
2022/01/05 03:23:54;;;;;;;0.80;0.80;;;;;;;4.52;76.01;97197.47;4102125;28;20199;-54
2022/01/05 03:25:56;;;;;;;0.90;0.90;;;;;;;4.57;76.55;97200.28;4106220;28;20245;-54
2022/01/05 03:27:58;;;;;;;0.90;0.90;;;;;;;4.61;76.91;97206.03;4104180;28;20207;-55
2022/01/05 03:30:01;;;;;;;1.17;0.80;;;;;;;4.54;76.75;97197.25;4089793;28;20702;-55
2022/01/05 03:32:03;;;;;;;0.80;0.80;;;;;;;4.59;76.54;97194.63;4117052;28;20317;-56
2022/01/05 03:34:05;;;;;;;1.40;0.90;;;;;;;4.59;76.66;97203.56;4118998;28;20213;-53
2022/01/05 03:36:07;;;;;;;0.77;0.77;;;;;;;4.61;76.75;97217.66;4107682;28;20230;-55
2022/01/05 03:38:09;;;;;;;0.80;0.80;;;;;;;4.52;74.40;97219.13;4104077;28;20253;-54
2022/01/05 03:40:11;;;;;;;1.02;1.02;;;;;;;4.53;75.05;97219.97;4104275;28;20218;-54
2022/01/05 03:42:13;;;;;;;1.13;0.93;;;;;;;4.56;75.76;97222.19;4120509;28;20245;-54
2022/01/05 03:44:14;;;;;;;0.93;0.93;;;;;;;4.52;75.27;97234.56;4104486;28;20229;-54
2022/01/05 03:46:16;;;;;;;0.90;0.90;;;;;;;4.58;75.08;97231.72;4102390;28;20290;-54
2022/01/05 03:48:19;;;;;;;1.30;1.30;;;;;;;4.49;75.80;97246.72;4121543;28;20246;-54
2022/01/05 03:50:21;;;;;;;1.10;1.10;;;;;;;4.54;75.86;97254.91;4090419;28;20207;-54
2022/01/05 03:52:23;;;;;;;4.32;1.15;;;;;;;4.57;76.22;97265.28;4105104;28;20215;-55
2022/01/05 03:54:24;;;;;;;1.27;1.23;;;;;;;4.55;76.55;97266.59;4103992;28;20672;-56
2022/01/05 03:56:29;;;;;;;0.90;0.90;;;;;;;4.56;76.30;97258.22;4119464;28;20214;-55
2022/01/05 03:58:31;;;;;;;1.00;0.80;;;;;;;4.65;76.15;97266.75;4109070;28;20888;-54
2022/01/05 04:00:36;;;;;;;0.88;0.88;;;;;;;4.60;76.05;97274.81;4106845;28;20207;-54
2022/01/05 04:02:38;;;;;;;0.80;0.80;;;;;;;4.61;76.12;97282.66;4108547;28;20195;-55
2022/01/05 04:04:39;;;;;;;0.77;0.77;;;;;;;4.71;75.90;97304.53;4123137;28;20256;-55
2022/01/05 04:06:41;;;;;;;1.05;1.05;;;;;;;4.58;76.40;97310.25;4104012;28;20735;-54
2022/01/05 04:08:43;;;;;;;1.00;1.00;;;;;;;4.60;76.49;97321.66;4125230;28;20269;-55
2022/01/05 04:10:45;;;;;;;0.95;0.90;;;;;;;4.50;75.60;97318.78;4111568;28;20214;-54
2022/01/05 04:12:47;;;;;;;0.75;0.75;;;;;;;4.44;75.74;97325.16;4123315;28;20214;-54
2022/01/05 04:14:49;;;;;;;0.95;0.80;;;;;;;4.36;75.68;97335.53;4119810;28;20218;-55
2022/01/05 04:16:51;;;;;;;0.90;0.90;;;;;;;4.26;76.05;97335.34;4108899;28;20246;-55
2022/01/05 04:18:52;;;;;;;0.80;0.80;;;;;;;4.42;76.51;97338.13;4123669;28;20535;-54
2022/01/05 04:20:54;;;;;;;1.27;1.17;;;;;;;4.16;76.27;97338.66;4121052;28;20829;-55
2022/01/05 04:22:56;;;;;;;0.90;0.90;;;;;;;4.16;76.67;97343.22;4104586;28;20249;-56
2022/01/05 04:24:57;;;;;;;1.20;1.20;;;;;;;4.17;77.28;97351.13;4106566;28;20234;-54
2022/01/05 04:26:59;;;;;;;0.98;0.98;;;;;;;4.19;77.14;97342.75;4109656;28;20607;-54
2022/01/05 04:29:01;;;;;;;1.10;1.00;;;;;;;4.22;77.37;97356.66;4121433;28;20576;-55
2022/01/05 04:31:02;;;;;;;1.02;1.02;;;;;;;4.26;77.05;97365.91;4107182;28;20218;-55
2022/01/05 04:33:04;;;;;;;0.77;0.77;;;;;;;4.23;77.16;97371.81;4106463;28;20211;-55
2022/01/05 04:35:26;;;;;;;2.03;1.10;;;;;;;4.30;76.62;97366.25;4106097;28;20258;-55
2022/01/05 04:37:29;;;;;;;1.25;1.10;;;;;;;4.07;76.49;97371.72;4107381;28;20216;-55
2022/01/05 04:39:31;;;;;;;1.33;1.08;;;;;;;4.19;77.08;97376.06;4103430;28;20325;-54
2022/01/05 04:41:33;;;;;;;1.00;1.00;;;;;;;4.14;76.32;97378.63;4120621;28;20218;-54
2022/01/05 04:43:35;;;;;;;2.00;1.15;;;;;;;4.05;76.70;97396.31;4118016;28;20202;-55
2022/01/05 04:45:36;;;;;;;1.05;1.05;;;;;;;4.12;76.41;97396.16;4106327;28;20232;-54
2022/01/05 04:47:38;;;;;;;1.58;1.00;;;;;;;4.16;77.24;97403.59;4125921;28;20557;-53
2022/01/05 04:49:40;;;;;;;1.00;0.93;;;;;;;4.28;76.46;97401.69;4101683;28;20231;-55
2022/01/05 04:51:42;;;;;;;1.23;1.08;;;;;;;4.04;75.02;97410.91;4106934;28;20214;-54
2022/01/05 04:53:44;;;;;;;1.30;1.20;;;;;;;3.93;75.67;97409.00;4122645;28;20679;-54
2022/01/05 04:55:45;;;;;;;1.17;1.17;;;;;;;3.95;74.92;97412.28;4104354;28;20227;-54
2022/01/05 04:57:47;;;;;;;1.30;1.10;;;;;;;3.81;75.49;97416.28;4118527;28;20243;-54
2022/01/05 04:59:49;;;;;;;1.58;1.48;;;;;;;3.69;76.15;97423.59;4109867;28;20226;-55
2022/01/05 05:01:51;;;;;;;1.40;1.30;;;;;;;3.81;75.95;97432.53;4120643;28;20207;-54
2022/01/05 05:03:53;;;;;;;3.58;1.23;;;;;;;3.78;76.71;97432.19;4121638;28;20213;-55
2022/01/05 05:05:54;;;;;;;2.95;1.38;;;;;;;3.79;76.38;97431.13;4092243;28;20203;-54
2022/01/05 05:07:57;;;;;;;1.60;1.50;;;;;;;3.86;76.67;97439.97;4102923;28;20681;-55
2022/01/05 05:09:59;;;;;;;1.15;1.15;;;;;;;3.91;76.13;97443.63;4104992;28;20207;-55
2022/01/05 05:12:01;;;;;;;1.23;1.13;;;;;;;3.93;76.12;97435.25;4123636;28;20214;-55
2022/01/05 05:14:03;;;;;;;1.20;1.10;;;;;;;3.83;76.46;97446.66;4117972;28;20238;-55
2022/01/05 05:16:04;;;;;;;1.02;1.00;;;;;;;3.74;76.54;97452.66;4104669;28;20326;-55
2022/01/05 05:18:07;;;;;;;1.30;1.20;;;;;;;3.78;77.08;97443.84;4105502;28;21623;-55
2022/01/05 05:20:09;;;;;;;1.23;1.15;;;;;;;3.73;76.71;97462.63;4108766;28;20214;-55
2022/01/05 05:22:11;;;;;;;2.05;1.85;;;;;;;3.76;76.26;97469.47;4104479;28;20277;-54
2022/01/05 05:24:15;;;;;;;1.63;1.15;;;;;;;3.66;76.38;97472.72;4102776;28;20322;-54
2022/01/05 05:26:17;;;;;;;3.42;1.35;;;;;;;3.54;75.96;97466.47;4105560;28;20261;-54
2022/01/05 05:28:18;;;;;;;3.17;1.25;;;;;;;3.61;77.01;97474.50;4108679;28;20742;-54
2022/01/05 05:30:20;;;;;;;3.50;1.27;;;;;;;3.59;76.00;97482.84;4108588;28;20213;-54
2022/01/05 05:32:22;;;;;;;2.58;1.63;;;;;;;3.59;75.65;97488.25;4106403;28;20213;-55
2022/01/05 05:34:25;;;;;;;1.23;1.23;;;;;;;3.58;76.36;97493.88;4106794;28;20210;-55
2022/01/05 05:36:26;;;;;;;1.85;1.45;;;;;;;3.57;76.40;97495.78;4105580;28;20843;-55
2022/01/05 05:38:29;;;;;;;1.70;1.50;;;;;;;3.56;76.34;97493.28;4105668;28;20234;-55
2022/01/05 05:40:30;;;;;;;1.83;1.55;;;;;;;3.50;75.96;97496.91;4105119;28;20699;-55
2022/01/05 05:42:32;;;;;;;2.28;1.50;;;;;;;3.48;75.76;97499.03;4100638;28;21195;-54
2022/01/05 05:44:34;;;;;;;4.97;1.75;;;;;;;3.39;75.72;97498.53;4109345;28;20234;-55
2022/01/05 05:46:36;;;;;;;2.95;1.80;;;;;;;3.33;76.21;97499.44;4104071;28;20306;-54
2022/01/05 05:48:38;;;;;;;1.95;1.77;;;;;;;3.36;75.96;97504.41;4103715;28;20783;-55
2022/01/05 05:50:39;;;;;;;1.60;1.50;;;;;;;3.41;76.33;97506.41;4106585;28;20261;-54
2022/01/05 05:52:41;;;;;;;2.40;1.80;;;;;;;3.25;76.70;97515.97;4115396;28;20209;-55
2022/01/05 05:54:43;;;;;;;5.18;1.50;;;;;;;3.30;75.90;97513.44;4118738;28;20206;-56
2022/01/05 05:57:05;;;;;;;2.10;1.90;;;;;;;3.37;76.36;97524.13;4109126;28;20718;-54
2022/01/05 05:59:07;;;;;;;3.25;2.08;;;;;;;3.30;75.69;97526.09;4109811;28;20841;-56
2022/01/05 06:01:08;;;;;;;3.08;2.47;;;;;;;3.33;76.34;97515.66;4110361;28;20210;-56
2022/01/05 06:03:10;;;;;;;4.28;2.50;;;;;;;3.38;75.62;97518.50;4117634;28;20225;-55
2022/01/05 06:05:12;;;;;;;4.35;3.50;;;;;;;3.29;75.32;97524.47;4117735;28;20576;-55
2022/01/05 06:07:14;;;;;;;2.60;1.83;;;;;;;3.27;74.93;97527.38;4114997;28;20238;-54
2022/01/05 06:09:16;;;;;;;3.22;2.40;;;;;;;3.21;74.42;97528.28;4106782;28;20277;-55
2022/01/05 06:11:17;;;;;;;3.58;1.83;;;;;;;3.15;73.49;97534.59;4124160;28;20213;-55
2022/01/05 06:13:19;;;;;;;3.70;1.75;;;;;;;2.92;72.59;97544.47;4116573;28;20210;-54
2022/01/05 06:15:21;;;;;;;5.05;2.47;;;;;;;2.82;72.01;97539.59;4099434;28;20498;-53
2022/01/05 06:17:23;;;;;;;4.82;2.17;;;;;;;2.85;73.79;97554.50;4102098;28;21148;-55
2022/01/05 06:19:25;;;;;;;5.00;2.65;;;;;;;2.77;71.76;97555.66;4115544;28;20324;-54
2022/01/05 06:21:26;;;;;;;2.90;1.88;;;;;;;2.80;71.20;97562.50;4103875;28;20269;-54
2022/01/05 06:23:28;;;;;;;3.08;2.78;;;;;;;2.81;72.73;97575.75;4103117;28;20253;-54
2022/01/05 06:25:30;;;;;;;3.65;1.60;;;;;;;2.81;72.77;97581.16;4102898;28;20206;-53
2022/01/05 06:27:32;;;;;;;11.40;1.92;;;;;;;2.89;72.88;97583.59;4101598;28;20243;-54
2022/01/05 06:29:33;;;;;;;7.97;1.90;;;;;;;2.85;72.50;97587.75;4118445;28;20952;-54
2022/01/05 06:31:35;;;;;;;5.43;1.95;;;;;;;2.76;71.94;97599.94;4117541;28;20570;-55
2022/01/05 06:33:37;;;;;;;3.33;2.10;;;;;;;2.67;71.77;97611.25;4119837;28;20280;-55
2022/01/05 06:35:39;;;;;;;2.80;1.98;;;;;;;2.52;69.87;97603.47;4107286;28;20743;-54
2022/01/05 06:37:41;;;;;;;2.47;2.28;;;;;;;2.47;70.02;97606.00;4121918;28;20279;-55
2022/01/05 06:39:45;;;;;;;3.97;1.90;;;;;;;2.49;70.94;97603.94;4123834;28;21629;-54
2022/01/05 06:41:47;;;;;;;6.38;2.80;;;;;;;2.70;73.02;97606.22;4122174;28;20253;-55
2022/01/05 06:43:49;;;;;;;5.72;2.45;;;;;;;2.62;71.58;97608.38;4126958;28;20671;-55
2022/01/05 06:45:51;;;;;;;10.70;2.55;;;;;;;2.54;70.51;97611.34;4125231;28;20202;-54
2022/01/05 06:47:53;;;;;;;5.32;2.75;;;;;;;2.71;72.84;97625.94;4108676;28;20672;-54
2022/01/05 06:49:55;;;;;;;2.63;2.35;;;;;;;2.60;70.55;97616.69;4103732;28;20277;-55
2022/01/05 06:52:01;;;;;;;5.18;1.73;;;;;;;2.45;71.16;97608.09;4108879;28;20211;-55
2022/01/05 06:54:03;;;;;;;3.92;2.05;;;;;;;2.51;71.84;97604.53;4107210;28;20281;-55
2022/01/05 06:56:04;;;;;;;6.80;2.33;;;;;;;2.51;70.97;97612.63;4107613;28;20262;-53
2022/01/05 06:58:06;;;;;;;7.88;1.80;;;;;;;2.34;70.34;97616.09;4108990;28;20206;-54
2022/01/05 07:00:10;;;;;;;2.88;1.88;;;;;;;2.27;70.23;97620.72;4109870;28;20214;-55
2022/01/05 07:02:11;;;;;;;4.22;2.03;;;;;;;2.37;70.36;97616.50;4120063;28;20221;-54
2022/01/05 07:04:13;;;;;;;2.78;2.10;;;;;;;2.29;70.76;97614.06;4107078;28;20206;-54
2022/01/05 07:06:15;;;;;;;5.38;2.55;;;;;;;2.20;70.90;97620.78;4122106;28;20231;-54
2022/01/05 07:08:18;;;;;;;9.27;2.92;;;;;;;2.04;69.47;97621.31;4090755;28;20227;-55
2022/01/05 07:10:20;;;;;;;3.00;1.92;;;;;;;2.12;71.98;97639.09;4109144;28;20729;-55
2022/01/05 07:12:21;;;;;;;5.30;1.73;;;;;;;2.11;70.81;97637.44;4108411;28;20660;-54
2022/01/05 07:14:23;;;;;;;3.35;2.85;;;;;;;2.14;70.53;97637.03;4109727;28;20199;-54
2022/01/05 07:16:25;;;;;;;5.82;2.15;;;;;;;2.19;72.57;97642.56;4106439;28;20223;-55
2022/01/05 07:18:27;;;;;;;4.93;2.60;;;;;;;2.09;72.30;97634.97;4125290;28;20653;-53
2022/01/05 07:20:29;;;;;;;14.30;4.78;;;;;;;2.10;72.74;97642.03;4126317;28;20616;-54
2022/01/05 07:22:31;;;;;;;11.80;2.42;;;;;;;2.16;72.77;97646.56;4109691;28;20242;-55
2022/01/05 07:24:33;;;;;;;7.00;2.67;;;;;;;2.08;71.32;97649.50;4121906;28;20218;-53
2022/01/05 07:26:35;;;;;;;3.85;2.42;;;;;;;2.02;71.62;97650.34;4110036;28;20206;-54
2022/01/05 07:28:37;;;;;;;10.10;2.45;;;;;;;2.05;72.31;97666.13;4107111;28;20581;-54
2022/01/05 07:30:39;;;;;;;3.83;3.15;;;;;;;2.05;72.13;97666.13;4107753;28;20648;-55
2022/01/05 07:32:40;;;;;;;6.95;3.47;;;;;;;2.04;71.59;97675.28;4111525;28;20370;-54
2022/01/05 07:34:42;;;;;;;2.35;2.15;;;;;;;1.97;71.56;97673.66;4108989;28;20269;-56
2022/01/05 07:36:47;;;;;;;6.82;2.95;;;;;;;1.95;71.67;97678.44;4125572;28;20725;-54
2022/01/05 07:38:48;;;;;;;4.28;2.80;;;;;;;1.99;72.32;97693.97;4110838;28;20234;-55
2022/01/05 07:40:50;;;;;;;6.38;3.20;;;;;;;1.90;72.80;97695.28;4094793;28;20212;-54
2022/01/05 07:42:52;;;;;;;5.57;3.67;;;;;;;1.88;71.47;97697.34;4107394;28;20270;-54
2022/01/05 07:44:53;;;;;;;4.18;3.20;;;;;;;1.89;72.36;97693.59;4125715;28;20210;-55
2022/01/05 07:46:55;;;;;;;6.47;3.00;;;;;;;1.79;71.89;97711.28;4110093;28;20726;-55
2022/01/05 07:48:57;;;;;;;5.00;2.70;;;;;;;1.81;72.28;97704.63;4126839;28;20621;-55
2022/01/05 07:50:59;;;;;;;4.70;2.92;;;;;;;1.89;72.74;97698.97;4096319;28;20254;-56
2022/01/05 07:53:01;;;;;;;4.97;2.92;;;;;;;1.95;71.88;97700.81;4125566;28;20210;-54
2022/01/05 07:55:03;;;;;;;3.78;2.72;;;;;;;1.92;72.22;97700.44;4110819;28;20218;-54
2022/01/05 07:57:05;;;;;;;2.85;2.60;;;;;;;1.88;72.00;97702.72;4126032;28;20226;-53
2022/01/05 07:59:07;;;;;;;2.88;2.10;;;;;;;2.01;71.37;97702.66;4104291;28;20704;-55
2022/01/05 08:01:09;;;;;;;3.75;2.20;;;;;;;1.80;71.11;97708.38;4107423;28;20241;-55
2022/01/05 08:03:11;;;;;;;2.42;2.20;;;;;;;1.88;72.10;97708.13;4124087;28;20265;-54
2022/01/05 08:05:13;;;;;;;5.50;2.67;;;;;;;1.86;72.25;97717.47;4112225;28;20206;-55
2022/01/05 08:07:15;;;;;;;3.03;2.17;;;;;;;1.88;72.58;97721.59;4117986;28;20700;-55
2022/01/05 08:09:17;;;;;;;6.28;3.38;;;;;;;1.94;72.23;97717.25;4126248;28;20736;-54
2022/01/05 08:11:19;;;;;;;6.88;2.78;;;;;;;1.88;72.63;97721.59;4096190;28;20207;-55
2022/01/05 08:13:21;;;;;;;3.88;2.53;;;;;;;1.81;71.82;97728.91;4128228;28;20202;-55
2022/01/05 08:15:22;;;;;;;8.88;2.72;;;;;;;1.77;72.16;97733.09;4125414;28;20207;-55
2022/01/05 08:17:30;;;;;;;5.55;3.28;;;;;;;1.95;72.20;97741.28;4111026;28;20280;-56
2022/01/05 08:19:41;;;;;;;5.18;2.53;;;;;;;1.98;72.38;97740.88;4126879;28;20225;-52
2022/01/05 08:21:43;;;;;;;6.22;2.83;;;;;;;1.97;71.44;97747.31;4112602;28;20211;-56
2022/01/05 08:23:45;;;;;;;6.18;3.25;;;;;;;1.77;71.20;97745.72;4107135;28;20525;-54
2022/01/05 08:25:47;;;;;;;10.60;3.22;;;;;;;1.75;71.45;97754.03;4112172;28;20258;-55
2022/01/05 08:27:49;;;;;;;9.60;3.15;;;;;;;1.65;71.66;97766.31;4125968;28;20213;-55
2022/01/05 08:29:51;;;;;;;7.57;2.50;;;;;;;1.86;71.40;97772.25;4095761;28;20251;-54
2022/01/05 08:31:53;;;;;;;5.25;2.70;;;;;;;1.78;71.75;97774.34;4128372;28;20217;-54
2022/01/05 08:33:56;;;;;;;3.83;2.15;;;;;;;1.77;71.52;97776.22;4112633;28;20649;-54
2022/01/05 08:35:58;;;;;;;5.05;2.13;;;;;;;1.75;71.40;97783.69;4127987;28;20290;-54
2022/01/05 08:38:00;;;;;;;5.88;2.85;;;;;;;1.78;71.24;97782.44;4118312;28;20236;-54
2022/01/05 08:40:03;;;;;;;6.47;3.08;;;;;;;2.20;72.26;97776.47;4111843;28;20685;-52
2022/01/05 08:42:05;;;;;;;5.13;2.65;;;;;;;2.50;70.04;97783.75;4113800;28;20587;-54
2022/01/05 08:44:07;;;;;;;10.05;2.65;;;;;;;2.43;69.18;97788.38;4110101;28;20282;-55
2022/01/05 08:46:09;;;;;;;2.45;2.20;;;;;;;2.43;69.70;97788.38;4125062;28;20245;-54
2022/01/05 08:48:11;;;;;;;6.43;2.90;;;;;;;2.36;70.39;97797.53;4111754;28;20231;-53
2022/01/05 08:50:15;;;;;;;8.73;3.15;;;;;;;2.20;70.57;97798.03;4126316;28;20206;-54
2022/01/05 08:52:17;;;;;;;4.72;3.58;;;;;;;2.34;70.40;97796.94;4112561;28;20712;-55
2022/01/05 08:54:18;;;;;;;13.68;3.75;;;;;;;2.24;70.44;97794.69;4128000;28;20210;-54
2022/01/05 08:56:25;;;;;;;9.27;3.13;;;;;;;2.19;70.98;97797.22;4110431;28;20211;-55
2022/01/05 08:58:26;;;;;;;7.57;3.20;;;;;;;2.12;71.21;97807.19;4126292;28;20234;-54
2022/01/05 09:00:28;;;;;;;5.45;3.13;;;;;;;2.22;71.50;97804.84;4096362;28;20223;-54
2022/01/05 09:02:30;;;;;;;7.90;3.60;;;;;;;2.34;71.62;97815.81;4126127;28;20735;-54
2022/01/05 09:04:32;;;;;;;7.28;3.70;;;;;;;2.21;69.21;97811.31;4111868;28;20222;-54
2022/01/05 09:06:45;;;;;;;8.43;4.43;;;;;;;2.24;70.14;97821.69;4128506;28;20615;-54
2022/01/05 09:08:52;;;;;;;8.73;2.40;;;;;;;2.30;70.80;97820.81;4111132;28;20293;-54
2022/01/05 09:10:56;;;;;;;5.68;2.42;;;;;;;2.32;70.16;97825.97;4114064;28;20199;-55
2022/01/05 09:13:00;;;;;;;2.13;1.92;;;;;;;2.18;69.93;97827.94;4127021;28;20245;-55
2022/01/05 09:15:10;;;;;;;13.27;3.30;;;;;;;2.21;69.21;97826.69;4129271;28;20202;-56
2022/01/05 09:17:13;;;;;;;11.57;4.22;;;;;;;2.39;70.40;97841.13;4125371;28;20217;-53
2022/01/05 09:19:14;;;;;;;4.35;2.00;;;;;;;2.36;69.90;97841.56;4123108;28;20230;-53
2022/01/05 09:21:16;;;;;;;5.85;3.13;;;;;;;2.45;70.31;97845.66;4112789;28;20620;-54
2022/01/05 09:23:18;;;;;;;5.45;3.30;;;;;;;2.45;69.86;97834.00;4108628;28;20715;-55
2022/01/05 09:25:21;;;;;;;10.75;2.88;;;;;;;2.45;70.05;97845.66;4110898;28;20289;-54
2022/01/05 09:27:23;;;;;;;6.68;4.53;;;;;;;2.51;69.70;97843.97;4130399;28;20702;-54
2022/01/05 09:29:34;;;;;;;7.68;4.07;;;;;;;2.68;70.16;97842.41;4110838;28;20708;-55
2022/01/05 09:31:36;;;;;;;4.57;2.72;;;;;;;2.66;69.20;97847.22;4111817;28;20214;-54
2022/01/05 09:33:38;;;;;;;7.72;3.53;;;;;;;2.78;69.39;97848.16;4111747;28;20211;-54
2022/01/05 09:35:42;;;;;;;4.90;2.60;;;;;;;2.79;68.32;97853.34;4111295;28;20218;-54
2022/01/05 09:42:18;;;;;;;7.93;2.45;;;;;;;2.77;69.74;97863.56;4112035;28;20257;-55
2022/01/05 09:44:20;;;;;;;9.50;3.85;;;;;;;2.75;69.82;97862.09;4111854;28;20203;-54
2022/01/05 09:46:38;;;;;;;14.43;3.95;;;;;;;2.67;70.28;97863.19;4112600;28;20755;-53
2022/01/05 09:48:53;;;;;;;10.20;3.67;;;;;;;2.66;70.37;97858.81;4127392;28;20257;-54